Time;durP1;ratioP1;P1;durP2;ratioP2;P2;SDS_P1;SDS_P2;PMS_P1;PMS_P2;Temp;Humidity;BMP_temperature;BMP_pressure;BME280_temperature;BME280_humidity;BME280_pressure;Samples;Min_cycle;Max_cycle;Signal;HPM_P1;HPM_P2
2021/11/03 00:02:05;;;;;;;29.60;20.80;;;;;;;;;;5073823;28;20291;-73
2021/11/03 00:04:33;;;;;;;31.63;20.67;;;;;;;;;;5073780;28;20200;-73
2021/11/03 00:07:00;;;;;;;28.10;18.67;;;;;;;;;;5073801;28;20195;-73
2021/11/03 00:09:27;;;;;;;31.20;20.30;;;;;;;;;;5074757;28;20524;-73
2021/11/03 00:11:55;;;;;;;33.00;21.00;;;;;;;;;;5073596;28;20692;-72
2021/11/03 00:14:22;;;;;;;28.13;20.05;;;;;;;;;;5073629;28;20677;-73
2021/11/03 00:16:51;;;;;;;35.70;22.98;;;;;;;;;;5074014;28;20194;-73
2021/11/03 00:19:18;;;;;;;27.40;20.20;;;;;;;;;;5074313;28;20207;-73
2021/11/03 00:21:45;;;;;;;26.95;19.27;;;;;;;;;;5073742;28;20633;-73
2021/11/03 00:24:12;;;;;;;32.83;20.45;;;;;;;;;;5073510;28;20702;-73
2021/11/03 00:26:39;;;;;;;28.77;20.65;;;;;;;;;;5073824;28;20227;-74
2021/11/03 00:29:07;;;;;;;27.92;19.52;;;;;;;;;;5073442;28;20204;-73
2021/11/03 00:31:34;;;;;;;33.50;20.90;;;;;;;;;;5073309;28;20308;-73
2021/11/03 00:34:02;;;;;;;33.08;20.55;;;;;;;;;;5073398;28;20223;-73
2021/11/03 00:36:29;;;;;;;28.33;19.80;;;;;;;;;;5073679;28;20200;-73
2021/11/03 00:38:57;;;;;;;31.42;19.35;;;;;;;;;;5073796;28;20200;-74
2021/11/03 00:41:24;;;;;;;26.13;18.02;;;;;;;;;;5073658;28;20203;-73
2021/11/03 00:43:53;;;;;;;29.20;18.85;;;;;;;;;;5073604;28;20192;-74
2021/11/03 00:46:20;;;;;;;33.38;17.25;;;;;;;;;;5073536;28;20242;-74
2021/11/03 00:48:47;;;;;;;27.85;19.13;;;;;;;;;;5073261;28;20679;-73
2021/11/03 00:51:15;;;;;;;30.77;19.48;;;;;;;;;;5073447;28;20250;-73
2021/11/03 00:53:43;;;;;;;26.08;18.73;;;;;;;;;;5073609;28;20319;-73
2021/11/03 00:56:10;;;;;;;29.45;18.48;;;;;;;;;;5073137;28;20207;-72
2021/11/03 00:58:37;;;;;;;29.20;21.08;;;;;;;;;;5073422;28;20203;-73
2021/11/03 01:01:05;;;;;;;33.47;19.85;;;;;;;;;;5073804;28;20291;-74
2021/11/03 01:03:32;;;;;;;29.50;18.75;;;;;;;;;;5073938;28;20574;-73
2021/11/03 01:05:59;;;;;;;33.40;19.85;;;;;;;;;;5073930;28;20288;-73
2021/11/03 01:08:28;;;;;;;30.45;20.77;;;;;;;;;;5073084;28;20198;-73
2021/11/03 01:10:55;;;;;;;30.60;19.67;;;;;;;;;;5073288;28;20547;-73
2021/11/03 01:13:23;;;;;;;32.33;20.00;;;;;;;;;;5073678;28;20626;-74
2021/11/03 01:15:50;;;;;;;31.10;20.15;;;;;;;;;;5073333;28;20291;-73
2021/11/03 01:18:18;;;;;;;31.38;19.30;;;;;;;;;;5073019;28;20657;-73
2021/11/03 01:20:46;;;;;;;28.25;17.65;;;;;;;;;;5073287;28;20379;-72
2021/11/03 01:23:14;;;;;;;31.38;19.67;;;;;;;;;;5073472;28;20201;-73
2021/11/03 01:25:42;;;;;;;31.00;20.58;;;;;;;;;;5073223;28;20196;-73
2021/11/03 01:28:10;;;;;;;27.80;19.25;;;;;;;;;;5072874;28;20200;-72
2021/11/03 01:30:37;;;;;;;32.28;19.95;;;;;;;;;;5073220;28;20201;-73
2021/11/03 01:33:04;;;;;;;30.67;20.98;;;;;;;;;;5073113;28;20225;-72
2021/11/03 01:35:32;;;;;;;32.88;20.23;;;;;;;;;;5072842;28;20193;-72
2021/11/03 01:38:00;;;;;;;32.28;19.60;;;;;;;;;;5072842;28;20199;-72
2021/11/03 01:40:28;;;;;;;33.58;21.75;;;;;;;;;;5073131;28;20197;-72
2021/11/03 01:42:56;;;;;;;30.20;19.80;;;;;;;;;;5073012;28;20199;-71
2021/11/03 01:45:26;;;;;;;34.67;21.17;;;;;;;;;;5073063;28;20232;-72
2021/11/03 01:47:54;;;;;;;33.20;20.67;;;;;;;;;;5072722;28;20197;-71
2021/11/03 01:50:24;;;;;;;30.13;20.52;;;;;;;;;;5073934;28;20199;-73
2021/11/03 01:52:53;;;;;;;32.38;19.85;;;;;;;;;;5076611;28;20343;-71
2021/11/03 01:55:21;;;;;;;36.47;22.77;;;;;;;;;;5077202;28;20195;-71
2021/11/03 01:57:50;;;;;;;30.98;20.20;;;;;;;;;;5076287;28;20197;-71
2021/11/03 02:00:20;;;;;;;32.80;21.15;;;;;;;;;;5077084;28;20196;-71
2021/11/03 02:02:48;;;;;;;27.27;20.45;;;;;;;;;;5079889;28;20184;-72
2021/11/03 02:05:16;;;;;;;29.52;20.30;;;;;;;;;;5077135;28;20290;-72
2021/11/03 02:07:43;;;;;;;33.22;21.65;;;;;;;;;;5075993;28;20285;-73
2021/11/03 02:10:11;;;;;;;29.35;20.10;;;;;;;;;;5076196;28;20233;-72
2021/11/03 02:12:38;;;;;;;38.97;19.95;;;;;;;;;;5076197;28;20216;-73
2021/11/03 02:15:07;;;;;;;32.60;20.15;;;;;;;;;;5075798;28;20197;-73
2021/11/03 02:17:36;;;;;;;32.55;20.08;;;;;;;;;;5076232;28;20195;-73
2021/11/03 02:20:07;;;;;;;31.75;21.40;;;;;;;;;;5076445;28;20201;-73
2021/11/03 02:22:38;;;;;;;35.80;22.40;;;;;;;;;;5076129;28;20210;-73
2021/11/03 02:25:07;;;;;;;34.03;19.85;;;;;;;;;;5076245;28;20185;-74
2021/11/03 02:27:35;;;;;;;35.30;20.95;;;;;;;;;;5075895;28;20196;-74
2021/11/03 02:30:02;;;;;;;33.10;19.50;;;;;;;;;;5075546;28;20201;-74
2021/11/03 02:32:31;;;;;;;31.95;20.02;;;;;;;;;;5075801;28;20311;-73
2021/11/03 02:34:58;;;;;;;35.45;21.75;;;;;;;;;;5076375;28;20288;-73
2021/11/03 02:37:39;;;;;;;34.33;20.63;;;;;;;;;;5078140;28;20279;-73
2021/11/03 02:40:12;;;;;;;30.98;21.88;;;;;;;;;;5075941;28;20212;-74
2021/11/03 02:42:41;;;;;;;33.60;21.15;;;;;;;;;;5076525;28;20228;-73
2021/11/03 02:45:11;;;;;;;33.85;20.90;;;;;;;;;;5076778;28;20205;-72
2021/11/03 02:47:38;;;;;;;40.63;20.50;;;;;;;;;;5075155;28;20200;-72
2021/11/03 02:50:08;;;;;;;31.67;19.52;;;;;;;;;;5075529;28;20282;-71
2021/11/03 02:52:35;;;;;;;31.38;19.95;;;;;;;;;;5074706;28;20239;-71
2021/11/03 02:55:03;;;;;;;34.33;19.73;;;;;;;;;;5075251;28;20287;-71
2021/11/03 02:57:31;;;;;;;36.13;19.60;;;;;;;;;;5075171;28;20191;-71
2021/11/03 02:59:59;;;;;;;31.60;20.02;;;;;;;;;;5075060;28;20203;-71
2021/11/03 03:02:26;;;;;;;29.55;19.60;;;;;;;;;;5075368;28;20234;-72
2021/11/03 03:04:54;;;;;;;29.77;20.00;;;;;;;;;;5075052;28;20199;-71
2021/11/03 03:07:22;;;;;;;28.15;19.35;;;;;;;;;;5075195;28;20226;-71
2021/11/03 03:09:49;;;;;;;35.58;20.88;;;;;;;;;;5074834;28;20203;-72
2021/11/03 03:12:20;;;;;;;30.77;19.27;;;;;;;;;;5074932;28;20253;-71
2021/11/03 03:14:50;;;;;;;34.70;18.52;;;;;;;;;;5074505;28;20184;-71
2021/11/03 03:17:17;;;;;;;29.40;19.90;;;;;;;;;;5075028;28;20263;-71
2021/11/03 03:19:45;;;;;;;30.15;19.42;;;;;;;;;;5074508;28;20204;-72
2021/11/03 03:22:13;;;;;;;31.13;19.50;;;;;;;;;;5074611;28;20628;-71
2021/11/03 03:24:40;;;;;;;33.85;20.27;;;;;;;;;;5074474;28;20232;-73
2021/11/03 03:27:08;;;;;;;37.78;18.98;;;;;;;;;;5074546;28;20207;-73
2021/11/03 03:29:36;;;;;;;30.05;18.85;;;;;;;;;;5074964;28;20577;-73
2021/11/03 03:32:05;;;;;;;28.80;20.42;;;;;;;;;;5075025;28;20223;-72
2021/11/03 03:34:33;;;;;;;31.45;20.63;;;;;;;;;;5074255;28;20288;-73
2021/11/03 03:37:00;;;;;;;34.58;20.95;;;;;;;;;;5074343;28;20197;-73
2021/11/03 03:39:27;;;;;;;35.78;21.80;;;;;;;;;;5074853;28;20229;-74
2021/11/03 03:41:56;;;;;;;40.95;21.15;;;;;;;;;;5074140;28;20208;-73
2021/11/03 03:44:24;;;;;;;37.42;22.55;;;;;;;;;;5073996;28;20196;-73
2021/11/03 03:46:51;;;;;;;41.70;24.08;;;;;;;;;;5073995;28;20199;-73
2021/11/03 03:49:20;;;;;;;34.20;22.73;;;;;;;;;;5073883;28;20200;-73
2021/11/03 03:51:48;;;;;;;31.83;21.52;;;;;;;;;;5073973;28;20228;-73
2021/11/03 03:54:15;;;;;;;35.70;21.55;;;;;;;;;;5074101;28;20186;-73
2021/11/03 03:56:42;;;;;;;34.53;20.20;;;;;;;;;;5073831;28;20269;-73
2021/11/03 03:59:09;;;;;;;36.00;21.75;;;;;;;;;;5073683;28;20663;-73
2021/11/03 04:01:38;;;;;;;31.48;20.75;;;;;;;;;;5074049;28;20603;-73
2021/11/03 04:04:06;;;;;;;27.85;20.15;;;;;;;;;;5073996;28;20512;-72
2021/11/03 04:06:34;;;;;;;31.95;19.67;;;;;;;;;;5073936;28;20196;-72
2021/11/03 04:09:01;;;;;;;30.70;20.50;;;;;;;;;;5073478;28;20203;-72
2021/11/03 04:11:29;;;;;;;39.42;21.23;;;;;;;;;;5073836;28;20195;-73
2021/11/03 04:13:56;;;;;;;35.75;21.15;;;;;;;;;;5073168;28;20631;-73
2021/11/03 04:16:23;;;;;;;33.08;19.83;;;;;;;;;;5073769;28;20194;-73
2021/11/03 04:18:50;;;;;;;31.17;20.27;;;;;;;;;;5073736;28;20196;-73
2021/11/03 04:21:17;;;;;;;33.58;20.15;;;;;;;;;;5073977;28;20218;-73
2021/11/03 04:23:46;;;;;;;36.20;20.40;;;;;;;;;;5073526;28;20668;-73
2021/11/03 04:26:21;;;;;;;40.55;22.05;;;;;;;;;;5073788;28;20192;-74
2021/11/03 04:28:48;;;;;;;33.25;21.48;;;;;;;;;;5073209;28;20289;-73
2021/11/03 04:31:15;;;;;;;32.65;20.05;;;;;;;;;;5073266;28;20286;-74
2021/11/03 04:33:42;;;;;;;35.95;23.52;;;;;;;;;;5073418;28;20561;-73
2021/11/03 04:36:10;;;;;;;37.60;22.33;;;;;;;;;;5073497;28;20195;-74
2021/11/03 04:38:37;;;;;;;34.58;21.35;;;;;;;;;;5073773;28;20224;-73
2021/11/03 04:41:06;;;;;;;35.47;21.08;;;;;;;;;;5073332;28;20206;-74
2021/11/03 04:43:33;;;;;;;46.30;23.45;;;;;;;;;;5073372;28;20201;-73
2021/11/03 04:46:01;;;;;;;35.50;19.50;;;;;;;;;;5073651;28;20273;-73
2021/11/03 04:48:28;;;;;;;36.42;20.77;;;;;;;;;;5073629;28;20211;-73
2021/11/03 04:50:56;;;;;;;32.58;20.10;;;;;;;;;;5073494;28;20229;-73
2021/11/03 04:53:23;;;;;;;43.83;22.50;;;;;;;;;;5073683;28;20667;-74
2021/11/03 04:55:51;;;;;;;41.63;23.90;;;;;;;;;;5073234;28;20206;-73
2021/11/03 04:58:20;;;;;;;37.50;21.27;;;;;;;;;;5073262;28;20208;-73
2021/11/03 05:00:47;;;;;;;41.92;21.83;;;;;;;;;;5073192;28;20200;-73
2021/11/03 05:03:15;;;;;;;37.50;21.98;;;;;;;;;;5073476;28;20196;-73
2021/11/03 05:05:42;;;;;;;37.10;22.33;;;;;;;;;;5073158;28;20193;-72
2021/11/03 05:08:10;;;;;;;44.97;23.13;;;;;;;;;;5073385;28;20648;-72
2021/11/03 05:10:38;;;;;;;41.95;23.17;;;;;;;;;;5073078;28;20207;-73
2021/11/03 05:13:05;;;;;;;34.50;21.58;;;;;;;;;;5073260;28;20224;-72
2021/11/03 05:15:34;;;;;;;36.17;21.30;;;;;;;;;;5073356;28;20288;-72
2021/11/03 05:18:01;;;;;;;42.33;23.63;;;;;;;;;;5072993;28;20657;-74
2021/11/03 05:20:29;;;;;;;37.22;22.33;;;;;;;;;;5073325;28;20309;-72
2021/11/03 05:22:56;;;;;;;40.20;22.75;;;;;;;;;;5072968;28;20288;-73
2021/11/03 05:25:25;;;;;;;36.58;22.60;;;;;;;;;;5073962;28;20238;-72
2021/11/03 05:27:53;;;;;;;44.92;23.88;;;;;;;;;;5076846;28;20284;-70
2021/11/03 05:30:22;;;;;;;41.08;21.75;;;;;;;;;;5077118;28;20565;-73
2021/11/03 05:32:51;;;;;;;38.40;23.27;;;;;;;;;;5085935;28;20305;-72
2021/11/03 05:35:18;;;;;;;35.55;20.48;;;;;;;;;;5095526;28;20290;-72
2021/11/03 05:37:45;;;;;;;37.08;22.63;;;;;;;;;;5096414;28;20200;-71
2021/11/03 05:40:15;;;;;;;37.92;24.13;;;;;;;;;;5096111;28;20202;-71
2021/11/03 05:42:43;;;;;;;37.03;23.10;;;;;;;;;;5096038;28;20290;-71
2021/11/03 05:45:10;;;;;;;36.25;22.38;;;;;;;;;;5096403;28;20190;-72
2021/11/03 05:47:37;;;;;;;33.47;21.10;;;;;;;;;;5096247;28;20230;-71
2021/11/03 05:50:07;;;;;;;37.20;22.88;;;;;;;;;;5096180;28;20230;-72
2021/11/03 05:52:34;;;;;;;37.42;21.23;;;;;;;;;;5096673;28;20236;-75
2021/11/03 05:55:01;;;;;;;44.75;24.90;;;;;;;;;;5097078;28;20283;-75
2021/11/03 05:57:30;;;;;;;35.75;23.30;;;;;;;;;;5096655;28;20207;-75
2021/11/03 05:59:58;;;;;;;39.15;23.35;;;;;;;;;;5096877;28;20198;-74
2021/11/03 06:02:25;;;;;;;44.67;22.83;;;;;;;;;;5096452;28;20199;-74
2021/11/03 06:04:52;;;;;;;37.13;21.33;;;;;;;;;;5096539;28;20200;-74
2021/11/03 06:07:22;;;;;;;44.70;23.58;;;;;;;;;;5096779;28;20289;-75
2021/11/03 06:09:49;;;;;;;40.15;22.83;;;;;;;;;;5096391;28;20200;-75
2021/11/03 06:12:17;;;;;;;40.20;24.08;;;;;;;;;;5096671;28;20226;-74
2021/11/03 06:14:44;;;;;;;40.50;23.85;;;;;;;;;;5095978;28;20215;-76
2021/11/03 06:17:11;;;;;;;47.55;23.73;;;;;;;;;;5096235;28;20201;-74
2021/11/03 06:19:39;;;;;;;43.45;24.20;;;;;;;;;;5096149;28;20192;-75
2021/11/03 06:22:06;;;;;;;40.63;22.38;;;;;;;;;;5095797;28;20507;-75
2021/11/03 06:24:36;;;;;;;47.53;24.05;;;;;;;;;;5094947;28;20203;-76
2021/11/03 06:27:04;;;;;;;40.63;24.02;;;;;;;;;;5095763;28;20269;-68
2021/11/03 06:29:34;;;;;;;44.85;25.13;;;;;;;;;;5096194;28;20196;-75
2021/11/03 06:32:03;;;;;;;35.63;24.00;;;;;;;;;;5095692;28;20664;-75
2021/11/03 06:34:30;;;;;;;46.17;24.10;;;;;;;;;;5095861;28;20306;-75
2021/11/03 06:36:59;;;;;;;44.63;25.60;;;;;;;;;;5095596;28;20282;-74
2021/11/03 06:39:31;;;;;;;43.55;23.77;;;;;;;;;;5095770;28;20195;-74
2021/11/03 06:42:01;;;;;;;39.33;24.83;;;;;;;;;;5096313;28;20191;-75
2021/11/03 06:44:28;;;;;;;33.65;22.20;;;;;;;;;;5095969;28;20728;-75
2021/11/03 06:46:57;;;;;;;35.60;23.52;;;;;;;;;;5095946;28;20282;-75
2021/11/03 06:49:24;;;;;;;40.50;23.77;;;;;;;;;;5095838;28;20202;-75
2021/11/03 06:51:52;;;;;;;40.40;24.58;;;;;;;;;;5095683;28;20607;-76
2021/11/03 06:54:21;;;;;;;41.15;23.85;;;;;;;;;;5095905;28;20304;-75
2021/11/03 06:56:49;;;;;;;36.90;23.48;;;;;;;;;;5096008;28;20227;-75
2021/11/03 06:59:18;;;;;;;46.13;23.33;;;;;;;;;;5095667;28;20643;-74
2021/11/03 07:01:45;;;;;;;41.50;22.27;;;;;;;;;;5096310;28;20201;-75
2021/11/03 07:04:14;;;;;;;31.63;20.60;;;;;;;;;;5095612;28;20286;-75
2021/11/03 07:06:42;;;;;;;36.20;22.17;;;;;;;;;;5095327;28;20243;-75
2021/11/03 07:09:10;;;;;;;32.35;21.30;;;;;;;;;;5095524;28;20195;-74
2021/11/03 07:11:37;;;;;;;37.42;22.38;;;;;;;;;;5095479;28;20285;-76
2021/11/03 07:14:04;;;;;;;35.35;22.33;;;;;;;;;;5094982;28;20306;-75
2021/11/03 07:16:33;;;;;;;37.53;21.88;;;;;;;;;;5095399;28;20199;-75
2021/11/03 07:19:00;;;;;;;34.38;20.45;;;;;;;;;;5094950;28;20205;-75
2021/11/03 07:21:28;;;;;;;32.70;19.60;;;;;;;;;;5095734;28;20640;-75
2021/11/03 07:23:55;;;;;;;34.25;20.98;;;;;;;;;;5094781;28;20288;-75
2021/11/03 07:26:22;;;;;;;35.55;20.15;;;;;;;;;;5094823;28;20196;-76
2021/11/03 07:28:49;;;;;;;38.75;20.02;;;;;;;;;;5094993;28;20268;-76
2021/11/03 07:31:17;;;;;;;29.67;20.08;;;;;;;;;;5095167;28;20200;-75
2021/11/03 07:33:45;;;;;;;32.42;20.88;;;;;;;;;;5095065;28;20227;-75
2021/11/03 07:36:14;;;;;;;35.75;22.27;;;;;;;;;;5094600;28;20233;-75
2021/11/03 07:38:41;;;;;;;35.35;23.55;;;;;;;;;;5094992;28;20304;-76
2021/11/03 07:41:09;;;;;;;30.50;21.30;;;;;;;;;;5094761;28;20286;-75
2021/11/03 07:43:39;;;;;;;34.80;23.20;;;;;;;;;;5094797;28;20199;-76
2021/11/03 07:46:06;;;;;;;32.15;21.05;;;;;;;;;;5093675;28;20199;-76
2021/11/03 07:48:34;;;;;;;41.38;22.67;;;;;;;;;;5093971;28;20203;-76
2021/11/03 07:51:03;;;;;;;38.15;22.30;;;;;;;;;;5094351;28;20282;-76
2021/11/03 07:53:31;;;;;;;34.80;21.05;;;;;;;;;;5094707;28;20233;-76
2021/11/03 07:56:00;;;;;;;37.38;21.17;;;;;;;;;;5094314;28;20203;-76
2021/11/03 07:58:28;;;;;;;33.30;21.20;;;;;;;;;;5094561;28;20196;-76
2021/11/03 08:00:56;;;;;;;39.20;21.98;;;;;;;;;;5094542;28;20549;-76
2021/11/03 08:03:24;;;;;;;31.73;20.05;;;;;;;;;;5094468;28;20203;-75
2021/11/03 08:05:52;;;;;;;30.73;19.80;;;;;;;;;;5094385;28;20195;-75
2021/11/03 08:08:25;;;;;;;31.92;20.50;;;;;;;;;;5094153;28;20668;-75
2021/11/03 08:10:53;;;;;;;34.08;19.95;;;;;;;;;;5094133;28;20630;-75
2021/11/03 08:13:22;;;;;;;28.95;20.23;;;;;;;;;;5094183;28;20227;-75
2021/11/03 08:15:51;;;;;;;28.10;18.98;;;;;;;;;;5093874;28;20669;-75
2021/11/03 08:18:19;;;;;;;29.67;19.27;;;;;;;;;;5093976;28;20291;-76
2021/11/03 08:20:46;;;;;;;29.05;20.50;;;;;;;;;;5093786;28;20290;-76
2021/11/03 08:23:14;;;;;;;34.25;20.48;;;;;;;;;;5094108;28;20282;-76
2021/11/03 08:25:43;;;;;;;28.48;19.73;;;;;;;;;;5094073;28;20199;-75
2021/11/03 08:28:10;;;;;;;31.70;20.67;;;;;;;;;;5094077;28;20197;-75
2021/11/03 08:30:39;;;;;;;28.35;19.10;;;;;;;;;;5094087;28;20203;-76
2021/11/03 08:33:08;;;;;;;32.75;19.33;;;;;;;;;;5093628;28;20199;-76
2021/11/03 08:35:37;;;;;;;27.73;19.38;;;;;;;;;;5093547;28;20282;-76
2021/11/03 08:38:05;;;;;;;29.77;19.85;;;;;;;;;;5093518;28;20197;-76
2021/11/03 08:40:34;;;;;;;27.33;18.17;;;;;;;;;;5093960;28;20193;-75
2021/11/03 08:43:05;;;;;;;27.85;19.05;;;;;;;;;;5093519;28;20200;-75
2021/11/03 08:45:32;;;;;;;24.50;17.40;;;;;;;;;;5093818;28;20182;-75
2021/11/03 08:48:00;;;;;;;25.63;17.02;;;;;;;;;;5094015;28;20207;-75
2021/11/03 08:50:34;;;;;;;24.27;17.25;;;;;;;;;;5093439;28;20196;-75
2021/11/03 08:53:01;;;;;;;23.05;17.10;;;;;;;;;;5093566;28;20323;-75
2021/11/03 08:55:29;;;;;;;28.52;18.75;;;;;;;;;;5093325;28;20700;-76
2021/11/03 08:58:06;;;;;;;24.55;17.55;;;;;;;;;;5093863;28;20197;-76
2021/11/03 09:00:34;;;;;;;23.90;17.05;;;;;;;;;;5098762;28;20192;-75
2021/11/03 09:03:01;;;;;;;22.83;15.63;;;;;;;;;;5100414;28;20572;-76
2021/11/03 09:05:30;;;;;;;29.63;19.05;;;;;;;;;;5100100;28;20236;-75
2021/11/03 09:07:59;;;;;;;28.08;17.77;;;;;;;;;;5100318;28;20192;-74
2021/11/03 09:10:27;;;;;;;21.80;16.45;;;;;;;;;;5100335;28;20293;-75
2021/11/03 09:12:54;;;;;;;25.90;18.80;;;;;;;;;;5101152;28;20285;-75
2021/11/03 09:15:23;;;;;;;26.45;17.80;;;;;;;;;;5099863;28;20220;-74
2021/11/03 09:17:50;;;;;;;24.00;17.35;;;;;;;;;;5100735;28;20245;-75
2021/11/03 09:20:18;;;;;;;25.48;17.25;;;;;;;;;;5099351;28;20222;-75
2021/11/03 09:22:45;;;;;;;26.27;16.80;;;;;;;;;;5099797;28;20206;-75
2021/11/03 09:25:14;;;;;;;33.50;17.45;;;;;;;;;;5100764;28;20196;-75
2021/11/03 09:27:42;;;;;;;27.05;15.63;;;;;;;;;;5100118;28;20377;-75
2021/11/03 09:30:11;;;;;;;26.20;16.88;;;;;;;;;;5100238;28;20599;-75
2021/11/03 09:32:42;;;;;;;28.27;19.17;;;;;;;;;;5100148;28;20283;-75
2021/11/03 09:35:12;;;;;;;25.90;17.27;;;;;;;;;;5099423;28;20286;-76
2021/11/03 09:37:39;;;;;;;23.92;16.48;;;;;;;;;;5099796;28;20653;-76
2021/11/03 09:40:07;;;;;;;24.42;17.42;;;;;;;;;;5099804;28;20196;-75
2021/11/03 09:42:35;;;;;;;30.08;18.55;;;;;;;;;;5100199;28;20628;-75
2021/11/03 09:45:02;;;;;;;24.83;17.50;;;;;;;;;;5099730;28;20212;-75
2021/11/03 09:47:31;;;;;;;24.70;17.10;;;;;;;;;;5099987;28;20197;-75
2021/11/03 09:50:03;;;;;;;34.83;19.52;;;;;;;;;;5099630;28;20246;-76
2021/11/03 09:52:31;;;;;;;27.33;17.25;;;;;;;;;;5100030;28;20224;-75
2021/11/03 09:54:59;;;;;;;41.80;17.15;;;;;;;;;;5099643;28;20659;-76
2021/11/03 09:57:29;;;;;;;26.15;16.50;;;;;;;;;;5099630;28;20286;-76
2021/11/03 10:00:01;;;;;;;22.13;15.30;;;;;;;;;;5099594;28;20232;-75
2021/11/03 10:02:35;;;;;;;25.00;17.33;;;;;;;;;;5099864;28;20656;-76
2021/11/03 10:05:14;;;;;;;27.05;17.42;;;;;;;;;;5100159;28;20515;-75
2021/11/03 10:07:46;;;;;;;24.42;16.55;;;;;;;;;;5099588;28;20279;-76
2021/11/03 10:10:21;;;;;;;25.08;17.20;;;;;;;;;;5099436;28;20280;-76
2021/11/03 10:12:48;;;;;;;23.52;17.00;;;;;;;;;;5096184;28;20269;-75
2021/11/03 10:15:20;;;;;;;24.80;15.50;;;;;;;;;;5096556;28;20221;-76
2021/11/03 10:17:58;;;;;;;23.30;15.00;;;;;;;;;;5097033;28;20706;-75
2021/11/03 10:20:32;;;;;;;26.05;16.73;;;;;;;;;;5096621;28;20442;-76
2021/11/03 10:23:08;;;;;;;21.30;15.20;;;;;;;;;;5096495;28;20232;-76
2021/11/03 10:25:35;;;;;;;35.30;23.70;;;;;;;;;;5096274;28;20189;-76
2021/11/03 10:28:03;;;;;;;37.60;25.63;;;;;;;;;;5096404;28;20202;-76
2021/11/03 10:30:35;;;;;;;25.75;17.05;;;;;;;;;;5096273;28;20442;-75
2021/11/03 10:33:12;;;;;;;18.65;14.70;;;;;;;;;;5096484;28;20231;-76
2021/11/03 10:35:42;;;;;;;22.70;16.95;;;;;;;;;;5096744;28;20201;-76
2021/11/03 10:38:11;;;;;;;28.40;17.40;;;;;;;;;;5096166;28;20232;-76
2021/11/03 10:40:44;;;;;;;21.52;16.27;;;;;;;;;;5096144;28;20211;-76
2021/11/03 10:43:22;;;;;;;27.55;16.38;;;;;;;;;;5096358;28;20660;-76
2021/11/03 10:45:57;;;;;;;28.58;17.77;;;;;;;;;;5096312;28;20193;-75
2021/11/03 10:48:25;;;;;;;19.93;14.17;;;;;;;;;;5096431;28;20270;-76
2021/11/03 10:51:02;;;;;;;23.50;17.40;;;;;;;;;;5095847;28;20439;-75
2021/11/03 10:53:30;;;;;;;21.40;15.65;;;;;;;;;;5096106;28;20485;-75
2021/11/03 10:56:00;;;;;;;26.90;16.60;;;;;;;;;;5095767;28;20578;-76
2021/11/03 10:58:28;;;;;;;22.65;15.95;;;;;;;;;;5095494;28;20196;-75
2021/11/03 11:00:58;;;;;;;29.30;15.00;;;;;;;;;;5095403;28;20284;-76
2021/11/03 11:03:26;;;;;;;21.75;15.80;;;;;;;;;;5095883;28;20531;-76
2021/11/03 11:05:57;;;;;;;22.17;14.60;;;;;;;;;;5095980;28;20200;-75
2021/11/03 11:08:27;;;;;;;19.17;15.98;;;;;;;;;;5095768;28;20427;-75
2021/11/03 11:10:57;;;;;;;29.48;18.08;;;;;;;;;;5095198;28;20185;-76
2021/11/03 11:13:27;;;;;;;22.30;16.00;;;;;;;;;;5095403;28;20197;-76
2021/11/03 11:15:57;;;;;;;18.95;16.52;;;;;;;;;;5095293;28;20224;-76
2021/11/03 11:18:36;;;;;;;25.37;17.40;;;;;;;;;;5096241;28;20181;-77
2021/11/03 11:21:08;;;;;;;22.70;15.40;;;;;;;;;;5094807;28;20797;-77
2021/11/03 11:23:41;;;;;;;24.33;15.95;;;;;;;;;;5094136;28;20909;-76
2021/11/03 11:26:15;;;;;;;24.03;18.20;;;;;;;;;;5095558;28;20242;-76
2021/11/03 11:28:47;;;;;;;20.25;15.90;;;;;;;;;;5095443;28;20459;-76
2021/11/03 11:31:21;;;;;;;21.53;16.57;;;;;;;;;;5095484;28;20280;-76
2021/11/03 11:33:54;;;;;;;23.60;15.23;;;;;;;;;;5095266;28;20844;-76
2021/11/03 11:36:27;;;;;;;25.53;16.53;;;;;;;;;;5094845;28;20455;-76
2021/11/03 11:39:03;;;;;;;22.47;14.80;;;;;;;;;;5095442;28;20452;-76
2021/11/03 11:41:32;;;;;;;25.87;16.30;;;;;;;;;;5094877;28;20437;-77
2021/11/03 11:44:02;;;;;;;22.87;16.17;;;;;;;;;;5094899;28;20436;-76
2021/11/03 11:46:31;;;;;;;25.25;16.75;;;;;;;;;;5095466;28;20449;-76
2021/11/03 11:49:00;;;;;;;26.47;20.63;;;;;;;;;;5094466;28;20677;-76
2021/11/03 11:51:29;;;;;;;29.05;20.33;;;;;;;;;;5094863;28;20485;-76
2021/11/03 11:54:18;;;;;;;22.30;14.23;;;;;;;;;;5094698;28;20204;-76
2021/11/03 11:56:45;;;;;;;21.10;14.97;;;;;;;;;;5094361;28;20923;-76
2021/11/03 11:59:21;;;;;;;22.03;15.40;;;;;;;;;;5094565;28;20478;-76
2021/11/03 12:02:01;;;;;;;33.27;17.10;;;;;;;;;;5094954;28;20522;-77
2021/11/03 12:04:45;;;;;;;36.97;17.30;;;;;;;;;;5094557;28;20919;-76
2021/11/03 12:07:28;;;;;;;32.53;15.10;;;;;;;;;;5094734;28;20499;-75
2021/11/03 12:10:16;;;;;;;90.60;24.00;;;;;;;;;;5094891;28;20423;-76
2021/11/03 12:12:58;;;;;;;79.00;18.67;;;;;;;;;;5094589;28;20458;-76
2021/11/03 12:15:47;;;;;;;21.02;13.45;;;;;;;;;;5093850;28;20577;-76
2021/11/03 12:18:19;;;;;;;72.45;18.00;;;;;;;;;;5094042;28;20598;-76
2021/11/03 12:20:54;;;;;;;31.80;15.17;;;;;;;;;;5094572;28;20213;-75
2021/11/03 12:23:41;;;;;;;85.93;20.10;;;;;;;;;;5094215;28;20425;-76
2021/11/03 12:26:29;;;;;;;82.05;20.15;;;;;;;;;;5094508;28;20445;-76
2021/11/03 12:28:59;;;;;;;29.97;15.43;;;;;;;;;;5089290;28;20193;-76
2021/11/03 12:31:29;;;;;;;19.02;14.15;;;;;;;;;;5100561;28;20784;-76
2021/11/03 12:34:17;;;;;;;31.58;16.08;;;;;;;;;;5093357;28;20200;-76
2021/11/03 12:36:51;;;;;;;18.27;13.20;;;;;;;;;;5088962;28;20224;-76
2021/11/03 12:39:33;;;;;;;36.22;15.63;;;;;;;;;;5094780;28;20182;-76
2021/11/03 12:42:19;;;;;;;23.67;13.97;;;;;;;;;;5094643;28;20194;-76
2021/11/03 12:44:48;;;;;;;28.13;17.83;;;;;;;;;;5094529;28;20440;-76
2021/11/03 12:47:18;;;;;;;19.23;14.43;;;;;;;;;;5093861;28;20533;-77
2021/11/03 12:49:45;;;;;;;22.58;13.85;;;;;;;;;;5093530;28;20436;-77
2021/11/03 12:52:14;;;;;;;16.30;13.18;;;;;;;;;;5093094;28;20323;-77
2021/11/03 12:54:52;;;;;;;17.92;13.75;;;;;;;;;;5094033;28;20211;-77
2021/11/03 12:57:22;;;;;;;43.92;18.20;;;;;;;;;;5093509;28;20223;-77
2021/11/03 12:59:59;;;;;;;35.58;15.75;;;;;;;;;;5093679;28;20286;-76
2021/11/03 13:02:30;;;;;;;36.00;15.50;;;;;;;;;;5093505;28;20195;-76
2021/11/03 13:04:59;;;;;;;17.70;13.98;;;;;;;;;;5093608;28;20200;-73
2021/11/03 13:07:29;;;;;;;19.17;13.40;;;;;;;;;;5093329;28;20254;-68
2021/11/03 13:09:57;;;;;;;22.20;14.63;;;;;;;;;;5093650;28;20199;-77
2021/11/03 13:12:26;;;;;;;20.05;13.88;;;;;;;;;;5093962;28;20283;-75
2021/11/03 13:14:54;;;;;;;25.98;14.05;;;;;;;;;;5093494;28;20198;-74
2021/11/03 13:17:23;;;;;;;26.40;15.50;;;;;;;;;;5093539;28;20193;-75
2021/11/03 13:19:50;;;;;;;21.08;13.32;;;;;;;;;;5093812;28;20234;-77
2021/11/03 13:22:20;;;;;;;24.52;14.90;;;;;;;;;;5093457;28;20195;-76
2021/11/03 13:24:48;;;;;;;19.17;14.82;;;;;;;;;;5093162;28;20194;-75
2021/11/03 13:27:18;;;;;;;191.83;27.53;;;;;;;;;;5091760;28;20215;-75
2021/11/03 13:29:53;;;;;;;56.05;17.67;;;;;;;;;;5092852;28;20910;-75
2021/11/03 13:32:24;;;;;;;74.47;19.33;;;;;;;;;;5092971;28;20195;-74
2021/11/03 13:34:52;;;;;;;26.43;14.80;;;;;;;;;;5092640;28;20273;-74
2021/11/03 13:37:27;;;;;;;21.70;14.10;;;;;;;;;;5092579;28;20523;-74
2021/11/03 13:39:59;;;;;;;14.95;12.77;;;;;;;;;;5092728;28;20233;-74
2021/11/03 13:42:44;;;;;;;17.75;13.55;;;;;;;;;;5092729;28;20257;-75
2021/11/03 13:45:27;;;;;;;17.85;13.85;;;;;;;;;;5092838;28;20185;-75
2021/11/03 13:48:00;;;;;;;19.40;14.80;;;;;;;;;;5095942;28;20182;-73
2021/11/03 13:50:29;;;;;;;19.42;13.13;;;;;;;;;;5096188;28;20449;-76
2021/11/03 13:53:01;;;;;;;29.27;17.40;;;;;;;;;;5096141;28;20226;-74
2021/11/03 13:55:30;;;;;;;20.15;13.25;;;;;;;;;;5096912;28;20306;-75
2021/11/03 13:57:57;;;;;;;29.95;15.20;;;;;;;;;;5096985;28;20535;-75
2021/11/03 14:00:25;;;;;;;21.87;13.40;;;;;;;;;;5096500;28;20282;-75
2021/11/03 14:02:53;;;;;;;24.15;14.82;;;;;;;;;;5096791;28;20445;-74
2021/11/03 14:05:31;;;;;;;27.20;17.17;;;;;;;;;;5096335;28;20208;-75
2021/11/03 14:08:00;;;;;;;64.90;19.23;;;;;;;;;;5096204;28;20279;-74
2021/11/03 14:10:27;;;;;;;21.20;14.55;;;;;;;;;;5095811;28;20289;-74
2021/11/03 14:12:55;;;;;;;21.48;15.38;;;;;;;;;;5096084;28;20194;-74
2021/11/03 14:15:22;;;;;;;24.45;16.20;;;;;;;;;;5095775;28;20655;-74
2021/11/03 14:17:50;;;;;;;21.40;15.60;;;;;;;;;;5095530;28;20712;-75
2021/11/03 14:20:37;;;;;;;27.23;18.02;;;;;;;;;;5096348;28;20572;-75
2021/11/03 14:23:05;;;;;;;28.50;17.57;;;;;;;;;;5096366;28;20617;-74
2021/11/03 14:25:34;;;;;;;23.50;16.08;;;;;;;;;;5096072;28;20467;-72
2021/11/03 14:28:03;;;;;;;87.50;21.10;;;;;;;;;;5096272;28;20194;-76
2021/11/03 14:30:32;;;;;;;25.03;15.77;;;;;;;;;;5096118;28;20525;-76